LSPA weather

Amlikon Glider Airport
Canton of Thurgau, Switzerland

Public forecast

Using degrees Celsius for public forecast. Weather courtesy of forecast.io.

Closest aviation weather report (METAR) to Amlikon Glider Airport

Closest report is Dübendorf Air Base, 19.3 nm (35.8 km) WSW. Retrieved 2020/03/31 06:20 UTC (29 minutes ago):

LSMD 310620Z 00000KT CAVOK M03/M06 Q1023 RMK BLU

Closest aviation forecast (TAF) to Amlikon Glider Airport

Forecast is more than 12 hours old.

Closest forecast is Dübendorf Air Base, 19.3 nm (35.8 km) WSW. Retrieved 2020/03/30 10:00 UTC (21 hours ago):

TAF LSMD 300925Z 3010/3116 06007KT 9999 FEW018 OVC021 BECMG 3010/3013 06015G30KT BECMG 3016/3019 CAVOK BECMG 3016/3019 05005KT BECMG 3107/3110 05015G25KT